sensor_id;sensor_type;location;lat;lon;timestamp;P1;durP1;ratioP1;P2;durP2;ratioP2
62903;SDS011;49000;50.698;13.322;2023-01-05T00:01:06;0.70;;;0.30;;
62903;SDS011;49000;50.698;13.322;2023-01-05T00:03:34;1.57;;;0.50;;
62903;SDS011;49000;50.698;13.322;2023-01-05T00:06:00;2.20;;;0.53;;
62903;SDS011;49000;50.698;13.322;2023-01-05T00:08:27;1.37;;;0.60;;
62903;SDS011;49000;50.698;13.322;2023-01-05T00:10:52;1.17;;;0.50;;
62903;SDS011;49000;50.698;13.322;2023-01-05T00:13:36;3.27;;;0.40;;
62903;SDS011;49000;50.698;13.322;2023-01-05T00:16:20;1.83;;;0.30;;
62903;SDS011;49000;50.698;13.322;2023-01-05T00:19:04;1.23;;;0.47;;
62903;SDS011;49000;50.698;13.322;2023-01-05T00:21:50;1.30;;;0.50;;
62903;SDS011;49000;50.698;13.322;2023-01-05T00:24:34;1.20;;;0.30;;
62903;SDS011;49000;50.698;13.322;2023-01-05T00:27:00;2.00;;;0.50;;
62903;SDS011;49000;50.698;13.322;2023-01-05T00:29:25;2.80;;;0.50;;
62903;SDS011;49000;50.698;13.322;2023-01-05T00:31:51;2.83;;;0.57;;
62903;SDS011;49000;50.698;13.322;2023-01-05T00:34:16;1.10;;;0.53;;
62903;SDS011;49000;50.698;13.322;2023-01-05T00:36:42;0.97;;;0.40;;
62903;SDS011;49000;50.698;13.322;2023-01-05T00:39:07;3.63;;;0.40;;
62903;SDS011;49000;50.698;13.322;2023-01-05T00:41:33;2.30;;;0.70;;
62903;SDS011;49000;50.698;13.322;2023-01-05T00:43:58;2.20;;;0.50;;
62903;SDS011;49000;50.698;13.322;2023-01-05T00:46:23;3.40;;;0.50;;
62903;SDS011;49000;50.698;13.322;2023-01-05T00:48:49;2.57;;;0.37;;
62903;SDS011;49000;50.698;13.322;2023-01-05T00:51:14;2.50;;;0.90;;
62903;SDS011;49000;50.698;13.322;2023-01-05T00:53:40;3.20;;;0.50;;
62903;SDS011;49000;50.698;13.322;2023-01-05T00:56:05;3.10;;;0.70;;
62903;SDS011;49000;50.698;13.322;2023-01-05T00:58:31;3.07;;;0.53;;
62903;SDS011;49000;50.698;13.322;2023-01-05T01:00:56;1.40;;;0.70;;
62903;SDS011;49000;50.698;13.322;2023-01-05T01:03:22;3.70;;;0.53;;
62903;SDS011;49000;50.698;13.322;2023-01-05T01:05:57;2.60;;;0.60;;
62903;SDS011;49000;50.698;13.322;2023-01-05T01:08:23;1.80;;;0.90;;
62903;SDS011;49000;50.698;13.322;2023-01-05T01:10:48;2.83;;;0.60;;
62903;SDS011;49000;50.698;13.322;2023-01-05T01:13:14;2.63;;;0.70;;
62903;SDS011;49000;50.698;13.322;2023-01-05T01:15:39;3.47;;;0.50;;
62903;SDS011;49000;50.698;13.322;2023-01-05T01:18:05;4.80;;;0.60;;
62903;SDS011;49000;50.698;13.322;2023-01-05T01:20:30;4.03;;;0.70;;
62903;SDS011;49000;50.698;13.322;2023-01-05T01:22:56;2.80;;;0.80;;
62903;SDS011;49000;50.698;13.322;2023-01-05T01:25:24;5.37;;;0.80;;
62903;SDS011;49000;50.698;13.322;2023-01-05T01:27:50;4.00;;;0.80;;
62903;SDS011;49000;50.698;13.322;2023-01-05T01:30:15;4.07;;;0.70;;
62903;SDS011;49000;50.698;13.322;2023-01-05T01:32:41;5.93;;;0.67;;
62903;SDS011;49000;50.698;13.322;2023-01-05T01:35:07;3.73;;;0.90;;
62903;SDS011;49000;50.698;13.322;2023-01-05T01:37:32;2.70;;;0.53;;
62903;SDS011;49000;50.698;13.322;2023-01-05T01:39:58;3.83;;;0.83;;
62903;SDS011;49000;50.698;13.322;2023-01-05T01:42:23;3.33;;;0.60;;
62903;SDS011;49000;50.698;13.322;2023-01-05T01:44:59;2.10;;;0.60;;
62903;SDS011;49000;50.698;13.322;2023-01-05T01:50:12;4.43;;;0.80;;
62903;SDS011;49000;50.698;13.322;2023-01-05T01:52:41;3.90;;;1.00;;
62903;SDS011;49000;50.698;13.322;2023-01-05T01:55:08;1.77;;;0.50;;
62903;SDS011;49000;50.698;13.322;2023-01-05T01:57:35;4.60;;;0.80;;
62903;SDS011;49000;50.698;13.322;2023-01-05T02:00:03;2.80;;;0.63;;
62903;SDS011;49000;50.698;13.322;2023-01-05T02:02:31;2.97;;;0.70;;
62903;SDS011;49000;50.698;13.322;2023-01-05T02:04:58;4.43;;;0.70;;
62903;SDS011;49000;50.698;13.322;2023-01-05T02:07:29;4.17;;;0.80;;
62903;SDS011;49000;50.698;13.322;2023-01-05T02:09:57;3.70;;;0.60;;
62903;SDS011;49000;50.698;13.322;2023-01-05T02:12:35;6.50;;;0.70;;
62903;SDS011;49000;50.698;13.322;2023-01-05T02:15:13;3.73;;;0.60;;
62903;SDS011;49000;50.698;13.322;2023-01-05T02:20:53;4.30;;;0.73;;
62903;SDS011;49000;50.698;13.322;2023-01-05T02:26:30;2.77;;;0.67;;
62903;SDS011;49000;50.698;13.322;2023-01-05T02:31:54;2.70;;;0.90;;
62903;SDS011;49000;50.698;13.322;2023-01-05T02:34:22;4.00;;;0.80;;
62903;SDS011;49000;50.698;13.322;2023-01-05T02:37:07;2.83;;;0.70;;
62903;SDS011;49000;50.698;13.322;2023-01-05T02:39:53;7.03;;;0.73;;
62903;SDS011;49000;50.698;13.322;2023-01-05T02:42:23;3.77;;;0.90;;
62903;SDS011;49000;50.698;13.322;2023-01-05T02:44:51;5.27;;;0.73;;
62903;SDS011;49000;50.698;13.322;2023-01-05T02:49:48;3.97;;;0.83;;
62903;SDS011;49000;50.698;13.322;2023-01-05T02:52:17;3.23;;;0.70;;
62903;SDS011;49000;50.698;13.322;2023-01-05T02:54:49;2.90;;;0.70;;
62903;SDS011;49000;50.698;13.322;2023-01-05T02:57:24;6.97;;;0.90;;
62903;SDS011;49000;50.698;13.322;2023-01-05T03:00:20;3.20;;;0.80;;
62903;SDS011;49000;50.698;13.322;2023-01-05T03:02:54;2.80;;;0.80;;
62903;SDS011;49000;50.698;13.322;2023-01-05T03:05:25;3.07;;;0.67;;
62903;SDS011;49000;50.698;13.322;2023-01-05T03:07:56;2.70;;;0.70;;
62903;SDS011;49000;50.698;13.322;2023-01-05T03:10:30;3.30;;;0.70;;
62903;SDS011;49000;50.698;13.322;2023-01-05T03:13:18;4.60;;;0.80;;
62903;SDS011;49000;50.698;13.322;2023-01-05T03:16:04;2.03;;;0.90;;
62903;SDS011;49000;50.698;13.322;2023-01-05T03:18:32;2.73;;;0.70;;
62903;SDS011;49000;50.698;13.322;2023-01-05T03:21:19;3.27;;;0.77;;
62903;SDS011;49000;50.698;13.322;2023-01-05T03:23:46;4.10;;;0.80;;
62903;SDS011;49000;50.698;13.322;2023-01-05T03:26:30;4.77;;;0.90;;
62903;SDS011;49000;50.698;13.322;2023-01-05T03:29:14;1.47;;;0.60;;
62903;SDS011;49000;50.698;13.322;2023-01-05T03:32:00;3.97;;;0.80;;
62903;SDS011;49000;50.698;13.322;2023-01-05T03:34:52;2.87;;;0.70;;
62903;SDS011;49000;50.698;13.322;2023-01-05T03:37:43;3.50;;;1.03;;
62903;SDS011;49000;50.698;13.322;2023-01-05T03:40:18;4.47;;;0.70;;
62903;SDS011;49000;50.698;13.322;2023-01-05T03:42:46;0.90;;;0.50;;
62903;SDS011;49000;50.698;13.322;2023-01-05T03:45:13;2.77;;;0.93;;
62903;SDS011;49000;50.698;13.322;2023-01-05T03:47:41;7.93;;;1.00;;
62903;SDS011;49000;50.698;13.322;2023-01-05T03:50:06;2.67;;;0.70;;
62903;SDS011;49000;50.698;13.322;2023-01-05T03:52:32;4.07;;;1.10;;
62903;SDS011;49000;50.698;13.322;2023-01-05T03:54:58;5.40;;;0.97;;
62903;SDS011;49000;50.698;13.322;2023-01-05T03:57:23;2.63;;;0.60;;
62903;SDS011;49000;50.698;13.322;2023-01-05T03:59:49;7.47;;;1.13;;
62903;SDS011;49000;50.698;13.322;2023-01-05T04:02:14;6.23;;;0.70;;
62903;SDS011;49000;50.698;13.322;2023-01-05T04:04:40;4.27;;;0.70;;
62903;SDS011;49000;50.698;13.322;2023-01-05T04:07:05;3.10;;;0.80;;
62903;SDS011;49000;50.698;13.322;2023-01-05T04:09:31;5.83;;;0.70;;
62903;SDS011;49000;50.698;13.322;2023-01-05T04:11:57;3.23;;;0.77;;
62903;SDS011;49000;50.698;13.322;2023-01-05T04:14:23;3.70;;;0.90;;
62903;SDS011;49000;50.698;13.322;2023-01-05T04:16:49;3.27;;;0.70;;
62903;SDS011;49000;50.698;13.322;2023-01-05T04:19:14;1.30;;;0.70;;
62903;SDS011;49000;50.698;13.322;2023-01-05T04:21:40;7.93;;;0.90;;
62903;SDS011;49000;50.698;13.322;2023-01-05T04:24:05;4.97;;;1.07;;
62903;SDS011;49000;50.698;13.322;2023-01-05T04:26:33;4.00;;;0.90;;
62903;SDS011;49000;50.698;13.322;2023-01-05T04:28:58;3.80;;;0.70;;
62903;SDS011;49000;50.698;13.322;2023-01-05T04:31:24;5.73;;;1.13;;
62903;SDS011;49000;50.698;13.322;2023-01-05T04:33:49;3.30;;;0.70;;
62903;SDS011;49000;50.698;13.322;2023-01-05T04:36:14;4.77;;;1.17;;
62903;SDS011;49000;50.698;13.322;2023-01-05T04:38:40;1.80;;;0.80;;
62903;SDS011;49000;50.698;13.322;2023-01-05T04:41:05;3.00;;;1.10;;
62903;SDS011;49000;50.698;13.322;2023-01-05T04:43:31;3.07;;;0.80;;
62903;SDS011;49000;50.698;13.322;2023-01-05T04:45:56;4.00;;;0.90;;
62903;SDS011;49000;50.698;13.322;2023-01-05T04:48:22;5.17;;;1.40;;
62903;SDS011;49000;50.698;13.322;2023-01-05T04:50:54;4.40;;;1.20;;
62903;SDS011;49000;50.698;13.322;2023-01-05T04:53:20;2.87;;;0.70;;
62903;SDS011;49000;50.698;13.322;2023-01-05T04:55:47;7.10;;;1.13;;
62903;SDS011;49000;50.698;13.322;2023-01-05T04:58:13;5.83;;;0.90;;
62903;SDS011;49000;50.698;13.322;2023-01-05T05:00:38;3.57;;;1.00;;
62903;SDS011;49000;50.698;13.322;2023-01-05T05:03:04;5.83;;;1.20;;
62903;SDS011;49000;50.698;13.322;2023-01-05T05:05:29;4.73;;;1.00;;
62903;SDS011;49000;50.698;13.322;2023-01-05T05:07:54;3.27;;;1.10;;
62903;SDS011;49000;50.698;13.322;2023-01-05T05:10:20;5.53;;;1.67;;
62903;SDS011;49000;50.698;13.322;2023-01-05T05:12:45;4.07;;;0.97;;
62903;SDS011;49000;50.698;13.322;2023-01-05T05:15:11;3.57;;;0.93;;
62903;SDS011;49000;50.698;13.322;2023-01-05T05:17:37;5.00;;;1.30;;
62903;SDS011;49000;50.698;13.322;2023-01-05T05:20:02;4.40;;;1.23;;
62903;SDS011;49000;50.698;13.322;2023-01-05T05:22:29;3.27;;;1.03;;
62903;SDS011;49000;50.698;13.322;2023-01-05T05:24:55;5.70;;;1.20;;
62903;SDS011;49000;50.698;13.322;2023-01-05T05:27:20;7.30;;;1.50;;
62903;SDS011;49000;50.698;13.322;2023-01-05T05:29:46;6.10;;;1.17;;
62903;SDS011;49000;50.698;13.322;2023-01-05T05:32:11;4.80;;;1.13;;
62903;SDS011;49000;50.698;13.322;2023-01-05T05:34:36;3.97;;;1.30;;
62903;SDS011;49000;50.698;13.322;2023-01-05T05:37:02;6.10;;;1.60;;
62903;SDS011;49000;50.698;13.322;2023-01-05T05:39:27;4.97;;;1.50;;
62903;SDS011;49000;50.698;13.322;2023-01-05T05:41:53;4.77;;;1.37;;
62903;SDS011;49000;50.698;13.322;2023-01-05T05:44:18;6.63;;;1.30;;
62903;SDS011;49000;50.698;13.322;2023-01-05T05:46:44;4.90;;;1.13;;
62903;SDS011;49000;50.698;13.322;2023-01-05T05:49:09;5.17;;;1.20;;
62903;SDS011;49000;50.698;13.322;2023-01-05T05:51:35;9.07;;;1.30;;
62903;SDS011;49000;50.698;13.322;2023-01-05T05:54:00;3.30;;;0.80;;
62903;SDS011;49000;50.698;13.322;2023-01-05T05:56:26;5.00;;;1.07;;
62903;SDS011;49000;50.698;13.322;2023-01-05T05:58:51;6.13;;;1.30;;
62903;SDS011;49000;50.698;13.322;2023-01-05T06:01:17;6.40;;;1.20;;
62903;SDS011;49000;50.698;13.322;2023-01-05T06:03:42;5.20;;;1.40;;
62903;SDS011;49000;50.698;13.322;2023-01-05T06:06:08;4.80;;;1.27;;
62903;SDS011;49000;50.698;13.322;2023-01-05T06:08:33;5.30;;;1.23;;
62903;SDS011;49000;50.698;13.322;2023-01-05T06:10:59;5.00;;;1.30;;
62903;SDS011;49000;50.698;13.322;2023-01-05T06:13:25;7.83;;;1.17;;
62903;SDS011;49000;50.698;13.322;2023-01-05T06:15:50;7.53;;;1.83;;
62903;SDS011;49000;50.698;13.322;2023-01-05T06:18:16;7.77;;;1.57;;
62903;SDS011;49000;50.698;13.322;2023-01-05T06:20:42;5.70;;;1.40;;
62903;SDS011;49000;50.698;13.322;2023-01-05T06:23:07;7.13;;;1.53;;
62903;SDS011;49000;50.698;13.322;2023-01-05T06:25:33;5.40;;;2.87;;
62903;SDS011;49000;50.698;13.322;2023-01-05T06:27:59;7.33;;;1.83;;
62903;SDS011;49000;50.698;13.322;2023-01-05T06:30:25;4.63;;;1.20;;
62903;SDS011;49000;50.698;13.322;2023-01-05T06:32:51;3.87;;;1.40;;
62903;SDS011;49000;50.698;13.322;2023-01-05T06:35:17;5.27;;;1.50;;
62903;SDS011;49000;50.698;13.322;2023-01-05T06:37:42;7.77;;;1.50;;
62903;SDS011;49000;50.698;13.322;2023-01-05T06:40:08;4.93;;;1.80;;
62903;SDS011;49000;50.698;13.322;2023-01-05T06:42:35;7.70;;;1.57;;
62903;SDS011;49000;50.698;13.322;2023-01-05T06:45:01;5.70;;;1.50;;
62903;SDS011;49000;50.698;13.322;2023-01-05T06:47:27;3.97;;;1.63;;
62903;SDS011;49000;50.698;13.322;2023-01-05T06:49:52;7.23;;;1.20;;
62903;SDS011;49000;50.698;13.322;2023-01-05T06:52:18;4.70;;;1.10;;
62903;SDS011;49000;50.698;13.322;2023-01-05T06:54:43;6.80;;;1.20;;
62903;SDS011;49000;50.698;13.322;2023-01-05T06:57:09;6.43;;;2.20;;
62903;SDS011;49000;50.698;13.322;2023-01-05T06:59:35;5.07;;;1.10;;
62903;SDS011;49000;50.698;13.322;2023-01-05T07:02:00;5.03;;;1.10;;
62903;SDS011;49000;50.698;13.322;2023-01-05T07:04:26;4.40;;;1.00;;
62903;SDS011;49000;50.698;13.322;2023-01-05T07:06:51;4.83;;;0.93;;
62903;SDS011;49000;50.698;13.322;2023-01-05T07:09:17;3.90;;;1.30;;
62903;SDS011;49000;50.698;13.322;2023-01-05T07:11:42;6.27;;;1.30;;
62903;SDS011;49000;50.698;13.322;2023-01-05T07:14:08;6.23;;;1.27;;
62903;SDS011;49000;50.698;13.322;2023-01-05T07:16:34;6.37;;;1.67;;
62903;SDS011;49000;50.698;13.322;2023-01-05T07:18:59;7.37;;;1.83;;
62903;SDS011;49000;50.698;13.322;2023-01-05T07:21:25;4.97;;;1.40;;
62903;SDS011;49000;50.698;13.322;2023-01-05T07:23:50;4.83;;;1.40;;
62903;SDS011;49000;50.698;13.322;2023-01-05T07:26:15;3.37;;;1.20;;
62903;SDS011;49000;50.698;13.322;2023-01-05T07:28:41;7.77;;;1.27;;
62903;SDS011;49000;50.698;13.322;2023-01-05T07:31:06;3.10;;;1.37;;
62903;SDS011;49000;50.698;13.322;2023-01-05T07:33:32;4.40;;;1.27;;
62903;SDS011;49000;50.698;13.322;2023-01-05T07:36:01;4.07;;;1.17;;
62903;SDS011;49000;50.698;13.322;2023-01-05T07:38:28;5.43;;;1.33;;
62903;SDS011;49000;50.698;13.322;2023-01-05T07:40:59;10.20;;;1.60;;
62903;SDS011;49000;50.698;13.322;2023-01-05T07:43:26;9.27;;;1.80;;
62903;SDS011;49000;50.698;13.322;2023-01-05T07:45:55;4.17;;;1.20;;
62903;SDS011;49000;50.698;13.322;2023-01-05T07:48:24;6.27;;;1.60;;
62903;SDS011;49000;50.698;13.322;2023-01-05T07:50:50;9.10;;;1.70;;
62903;SDS011;49000;50.698;13.322;2023-01-05T07:53:16;6.03;;;1.50;;
62903;SDS011;49000;50.698;13.322;2023-01-05T07:55:41;9.53;;;2.00;;
62903;SDS011;49000;50.698;13.322;2023-01-05T07:58:09;7.13;;;1.80;;
62903;SDS011;49000;50.698;13.322;2023-01-05T08:00:35;5.37;;;1.70;;
62903;SDS011;49000;50.698;13.322;2023-01-05T08:03:00;6.60;;;1.43;;
62903;SDS011;49000;50.698;13.322;2023-01-05T08:05:26;4.33;;;1.40;;
62903;SDS011;49000;50.698;13.322;2023-01-05T08:07:57;3.93;;;1.40;;
62903;SDS011;49000;50.698;13.322;2023-01-05T08:10:23;6.77;;;1.70;;
62903;SDS011;49000;50.698;13.322;2023-01-05T08:12:59;8.40;;;1.80;;
62903;SDS011;49000;50.698;13.322;2023-01-05T08:15:47;9.33;;;1.77;;
62903;SDS011;49000;50.698;13.322;2023-01-05T08:18:14;4.07;;;1.70;;
62903;SDS011;49000;50.698;13.322;2023-01-05T08:20:39;4.30;;;1.20;;
62903;SDS011;49000;50.698;13.322;2023-01-05T08:23:05;6.37;;;1.70;;
62903;SDS011;49000;50.698;13.322;2023-01-05T08:25:31;5.63;;;1.40;;
62903;SDS011;49000;50.698;13.322;2023-01-05T08:27:56;5.47;;;1.50;;
62903;SDS011;49000;50.698;13.322;2023-01-05T08:30:23;8.77;;;1.60;;
62903;SDS011;49000;50.698;13.322;2023-01-05T08:32:48;6.73;;;1.80;;
62903;SDS011;49000;50.698;13.322;2023-01-05T08:35:14;8.27;;;1.73;;
62903;SDS011;49000;50.698;13.322;2023-01-05T08:37:42;7.13;;;1.73;;
62903;SDS011;49000;50.698;13.322;2023-01-05T08:40:09;5.73;;;1.50;;
62903;SDS011;49000;50.698;13.322;2023-01-05T08:42:34;4.67;;;1.40;;
62903;SDS011;49000;50.698;13.322;2023-01-05T08:45:00;6.30;;;1.40;;
62903;SDS011;49000;50.698;13.322;2023-01-05T08:47:25;5.03;;;1.37;;
62903;SDS011;49000;50.698;13.322;2023-01-05T08:49:51;5.17;;;1.87;;
62903;SDS011;49000;50.698;13.322;2023-01-05T08:52:17;4.23;;;1.70;;
62903;SDS011;49000;50.698;13.322;2023-01-05T08:54:42;7.00;;;1.80;;
62903;SDS011;49000;50.698;13.322;2023-01-05T08:57:07;4.30;;;1.53;;
62903;SDS011;49000;50.698;13.322;2023-01-05T08:59:33;5.60;;;1.27;;
62903;SDS011;49000;50.698;13.322;2023-01-05T09:01:58;5.90;;;1.77;;
62903;SDS011;49000;50.698;13.322;2023-01-05T09:04:24;4.97;;;1.27;;
62903;SDS011;49000;50.698;13.322;2023-01-05T09:06:51;7.17;;;2.00;;
62903;SDS011;49000;50.698;13.322;2023-01-05T09:09:17;6.53;;;1.50;;
62903;SDS011;49000;50.698;13.322;2023-01-05T09:11:42;4.57;;;1.30;;
62903;SDS011;49000;50.698;13.322;2023-01-05T09:14:10;6.17;;;1.47;;
62903;SDS011;49000;50.698;13.322;2023-01-05T09:16:38;7.50;;;1.53;;
62903;SDS011;49000;50.698;13.322;2023-01-05T09:19:04;6.67;;;1.97;;
62903;SDS011;49000;50.698;13.322;2023-01-05T09:21:30;3.63;;;1.30;;
62903;SDS011;49000;50.698;13.322;2023-01-05T09:23:56;5.73;;;1.60;;
62903;SDS011;49000;50.698;13.322;2023-01-05T09:26:21;6.07;;;1.60;;
62903;SDS011;49000;50.698;13.322;2023-01-05T09:28:47;5.17;;;1.53;;
62903;SDS011;49000;50.698;13.322;2023-01-05T09:31:16;5.60;;;1.50;;
62903;SDS011;49000;50.698;13.322;2023-01-05T09:33:43;4.43;;;1.33;;
62903;SDS011;49000;50.698;13.322;2023-01-05T09:36:10;4.20;;;1.40;;
62903;SDS011;49000;50.698;13.322;2023-01-05T09:38:36;3.27;;;1.20;;
62903;SDS011;49000;50.698;13.322;2023-01-05T09:41:04;5.43;;;1.17;;
62903;SDS011;49000;50.698;13.322;2023-01-05T09:43:58;8.10;;;1.40;;
62903;SDS011;49000;50.698;13.322;2023-01-05T09:46:29;6.60;;;1.77;;
62903;SDS011;49000;50.698;13.322;2023-01-05T09:49:00;3.63;;;1.20;;
62903;SDS011;49000;50.698;13.322;2023-01-05T09:51:28;4.03;;;1.40;;
62903;SDS011;49000;50.698;13.322;2023-01-05T09:53:54;3.03;;;1.13;;
62903;SDS011;49000;50.698;13.322;2023-01-05T09:56:30;6.57;;;1.50;;
62903;SDS011;49000;50.698;13.322;2023-01-05T10:01:31;6.53;;;1.37;;
62903;SDS011;49000;50.698;13.322;2023-01-05T10:04:00;4.53;;;1.23;;
62903;SDS011;49000;50.698;13.322;2023-01-05T10:06:29;5.67;;;1.50;;
62903;SDS011;49000;50.698;13.322;2023-01-05T10:08:59;2.60;;;1.00;;
62903;SDS011;49000;50.698;13.322;2023-01-05T10:17:13;5.73;;;1.67;;
62903;SDS011;49000;50.698;13.322;2023-01-05T10:19:42;8.50;;;1.40;;
62903;SDS011;49000;50.698;13.322;2023-01-05T10:25:01;5.47;;;1.40;;
62903;SDS011;49000;50.698;13.322;2023-01-05T10:27:38;7.07;;;1.40;;
62903;SDS011;49000;50.698;13.322;2023-01-05T10:30:19;6.33;;;1.37;;
62903;SDS011;49000;50.698;13.322;2023-01-05T10:35:42;4.33;;;1.27;;
62903;SDS011;49000;50.698;13.322;2023-01-05T10:38:39;4.53;;;1.70;;
62903;SDS011;49000;50.698;13.322;2023-01-05T10:45:02;4.10;;;1.30;;
62903;SDS011;49000;50.698;13.322;2023-01-05T10:47:10;5.50;;;1.50;;
62903;SDS011;49000;50.698;13.322;2023-01-05T10:49:36;5.60;;;1.33;;
62903;SDS011;49000;50.698;13.322;2023-01-05T10:52:07;3.63;;;1.40;;
62903;SDS011;49000;50.698;13.322;2023-01-05T10:59:55;3.07;;;1.47;;
62903;SDS011;49000;50.698;13.322;2023-01-05T11:02:23;4.10;;;1.40;;
62903;SDS011;49000;50.698;13.322;2023-01-05T11:04:51;4.90;;;1.40;;
62903;SDS011;49000;50.698;13.322;2023-01-05T11:07:17;8.47;;;1.43;;
62903;SDS011;49000;50.698;13.322;2023-01-05T11:09:43;4.57;;;1.30;;
62903;SDS011;49000;50.698;13.322;2023-01-05T11:12:18;3.50;;;1.30;;
62903;SDS011;49000;50.698;13.322;2023-01-05T11:15:03;3.13;;;1.10;;
62903;SDS011;49000;50.698;13.322;2023-01-05T11:17:37;3.63;;;1.60;;
62903;SDS011;49000;50.698;13.322;2023-01-05T11:20:02;5.20;;;1.20;;
62903;SDS011;49000;50.698;13.322;2023-01-05T11:22:33;4.60;;;1.70;;
62903;SDS011;49000;50.698;13.322;2023-01-05T11:25:11;7.33;;;1.30;;
62903;SDS011;49000;50.698;13.322;2023-01-05T11:28:05;1.77;;;1.00;;
62903;SDS011;49000;50.698;13.322;2023-01-05T11:31:00;7.50;;;1.57;;
62903;SDS011;49000;50.698;13.322;2023-01-05T11:33:29;6.07;;;1.40;;
62903;SDS011;49000;50.698;13.322;2023-01-05T11:35:58;6.53;;;1.33;;
62903;SDS011;49000;50.698;13.322;2023-01-05T11:38:25;6.40;;;1.30;;
62903;SDS011;49000;50.698;13.322;2023-01-05T11:40:53;6.10;;;1.63;;
62903;SDS011;49000;50.698;13.322;2023-01-05T11:43:21;5.33;;;1.70;;
62903;SDS011;49000;50.698;13.322;2023-01-05T11:45:51;4.17;;;1.50;;
62903;SDS011;49000;50.698;13.322;2023-01-05T11:48:21;5.30;;;1.50;;
62903;SDS011;49000;50.698;13.322;2023-01-05T11:50:50;5.73;;;1.20;;
62903;SDS011;49000;50.698;13.322;2023-01-05T11:58:42;6.27;;;1.60;;
62903;SDS011;49000;50.698;13.322;2023-01-05T12:12:08;5.37;;;1.57;;
62903;SDS011;49000;50.698;13.322;2023-01-05T12:15:10;4.57;;;1.47;;
62903;SDS011;49000;50.698;13.322;2023-01-05T12:17:57;4.77;;;1.77;;
62903;SDS011;49000;50.698;13.322;2023-01-05T12:26:20;6.60;;;1.80;;
62903;SDS011;49000;50.698;13.322;2023-01-05T12:29:01;5.03;;;1.80;;
62903;SDS011;49000;50.698;13.322;2023-01-05T12:31:51;8.07;;;2.63;;
62903;SDS011;49000;50.698;13.322;2023-01-05T12:38:22;7.60;;;1.87;;
62903;SDS011;49000;50.698;13.322;2023-01-05T12:44:39;7.10;;;1.80;;
62903;SDS011;49000;50.698;13.322;2023-01-05T12:47:03;6.87;;;1.87;;
62903;SDS011;49000;50.698;13.322;2023-01-05T12:52:30;3.97;;;1.53;;
62903;SDS011;49000;50.698;13.322;2023-01-05T12:55:02;6.70;;;1.63;;
62903;SDS011;49000;50.698;13.322;2023-01-05T12:57:40;9.70;;;4.30;;
62903;SDS011;49000;50.698;13.322;2023-01-05T13:00:10;7.80;;;1.50;;
62903;SDS011;49000;50.698;13.322;2023-01-05T13:02:40;5.93;;;1.57;;
62903;SDS011;49000;50.698;13.322;2023-01-05T13:05:21;7.20;;;1.70;;
62903;SDS011;49000;50.698;13.322;2023-01-05T13:08:14;6.47;;;1.60;;
62903;SDS011;49000;50.698;13.322;2023-01-05T13:10:48;5.20;;;2.53;;
62903;SDS011;49000;50.698;13.322;2023-01-05T13:13:29;3.13;;;1.60;;
62903;SDS011;49000;50.698;13.322;2023-01-05T13:21:50;6.30;;;1.23;;
62903;SDS011;49000;50.698;13.322;2023-01-05T13:27:00;4.23;;;1.10;;
62903;SDS011;49000;50.698;13.322;2023-01-05T13:29:29;2.40;;;0.97;;
62903;SDS011;49000;50.698;13.322;2023-01-05T13:32:04;2.33;;;0.90;;
62903;SDS011;49000;50.698;13.322;2023-01-05T13:37:40;2.50;;;1.07;;
62903;SDS011;49000;50.698;13.322;2023-01-05T13:40:33;3.57;;;1.33;;
62903;SDS011;49000;50.698;13.322;2023-01-05T13:46:10;4.43;;;1.10;;
62903;SDS011;49000;50.698;13.322;2023-01-05T13:51:55;2.00;;;0.90;;
62903;SDS011;49000;50.698;13.322;2023-01-05T13:57:12;2.33;;;0.90;;
62903;SDS011;49000;50.698;13.322;2023-01-05T13:59:56;2.17;;;0.80;;
62903;SDS011;49000;50.698;13.322;2023-01-05T14:02:40;3.63;;;1.20;;
62903;SDS011;49000;50.698;13.322;2023-01-05T14:05:15;4.93;;;1.13;;
62903;SDS011;49000;50.698;13.322;2023-01-05T14:07:48;4.57;;;1.17;;
62903;SDS011;49000;50.698;13.322;2023-01-05T14:10:19;3.43;;;1.13;;
62903;SDS011;49000;50.698;13.322;2023-01-05T14:12:48;6.03;;;1.47;;
62903;SDS011;49000;50.698;13.322;2023-01-05T14:18:02;5.13;;;1.10;;
62903;SDS011;49000;50.698;13.322;2023-01-05T14:20:33;3.23;;;0.90;;
62903;SDS011;49000;50.698;13.322;2023-01-05T14:22:59;3.70;;;1.20;;
62903;SDS011;49000;50.698;13.322;2023-01-05T14:25:59;2.80;;;1.27;;
62903;SDS011;49000;50.698;13.322;2023-01-05T14:28:22;6.60;;;1.43;;
62903;SDS011;49000;50.698;13.322;2023-01-05T14:33:47;4.33;;;1.20;;
62903;SDS011;49000;50.698;13.322;2023-01-05T14:39:20;6.47;;;1.30;;
62903;SDS011;49000;50.698;13.322;2023-01-05T14:44:57;3.67;;;1.00;;
62903;SDS011;49000;50.698;13.322;2023-01-05T14:47:33;4.07;;;1.27;;
62903;SDS011;49000;50.698;13.322;2023-01-05T14:50:05;2.10;;;0.90;;
62903;SDS011;49000;50.698;13.322;2023-01-05T14:52:56;4.30;;;1.23;;
62903;SDS011;49000;50.698;13.322;2023-01-05T14:55:32;3.47;;;1.13;;
62903;SDS011;49000;50.698;13.322;2023-01-05T14:58:04;3.33;;;1.17;;
62903;SDS011;49000;50.698;13.322;2023-01-05T15:00:47;4.30;;;1.40;;
62903;SDS011;49000;50.698;13.322;2023-01-05T15:03:38;2.83;;;0.90;;
62903;SDS011;49000;50.698;13.322;2023-01-05T15:06:09;2.97;;;1.20;;
62903;SDS011;49000;50.698;13.322;2023-01-05T15:09:04;5.67;;;1.40;;
62903;SDS011;49000;50.698;13.322;2023-01-05T15:14:32;2.87;;;1.10;;
62903;SDS011;49000;50.698;13.322;2023-01-05T15:17:26;3.43;;;1.37;;
62903;SDS011;49000;50.698;13.322;2023-01-05T15:23:08;4.47;;;1.00;;
62903;SDS011;49000;50.698;13.322;2023-01-05T15:26:15;2.43;;;1.10;;
62903;SDS011;49000;50.698;13.322;2023-01-05T15:31:51;3.90;;;1.03;;
62903;SDS011;49000;50.698;13.322;2023-01-05T15:34:22;2.47;;;1.30;;
62903;SDS011;49000;50.698;13.322;2023-01-05T15:36:56;5.27;;;1.23;;
62903;SDS011;49000;50.698;13.322;2023-01-05T15:39:29;4.20;;;1.17;;
62903;SDS011;49000;50.698;13.322;2023-01-05T15:42:20;2.47;;;1.40;;
62903;SDS011;49000;50.698;13.322;2023-01-05T15:44:50;3.37;;;1.00;;
62903;SDS011;49000;50.698;13.322;2023-01-05T15:47:17;3.20;;;0.87;;
62903;SDS011;49000;50.698;13.322;2023-01-05T15:49:44;2.20;;;0.90;;
62903;SDS011;49000;50.698;13.322;2023-01-05T15:52:17;2.00;;;0.70;;
62903;SDS011;49000;50.698;13.322;2023-01-05T15:54:56;1.77;;;0.87;;
62903;SDS011;49000;50.698;13.322;2023-01-05T15:57:35;3.20;;;1.03;;
62903;SDS011;49000;50.698;13.322;2023-01-05T16:00:01;3.47;;;1.40;;
62903;SDS011;49000;50.698;13.322;2023-01-05T16:02:39;3.80;;;1.23;;
62903;SDS011;49000;50.698;13.322;2023-01-05T16:05:08;2.93;;;1.43;;
62903;SDS011;49000;50.698;13.322;2023-01-05T16:08:01;3.63;;;1.20;;
62903;SDS011;49000;50.698;13.322;2023-01-05T16:10:36;2.43;;;1.10;;
62903;SDS011;49000;50.698;13.322;2023-01-05T16:13:15;2.30;;;1.53;;
62903;SDS011;49000;50.698;13.322;2023-01-05T16:15:43;2.83;;;1.50;;
62903;SDS011;49000;50.698;13.322;2023-01-05T16:18:13;2.33;;;1.60;;
62903;SDS011;49000;50.698;13.322;2023-01-05T16:20:42;4.10;;;1.60;;
62903;SDS011;49000;50.698;13.322;2023-01-05T16:23:22;2.70;;;1.60;;
62903;SDS011;49000;50.698;13.322;2023-01-05T16:26:03;5.37;;;1.70;;
62903;SDS011;49000;50.698;13.322;2023-01-05T16:28:28;6.30;;;1.87;;
62903;SDS011;49000;50.698;13.322;2023-01-05T16:30:54;3.53;;;1.57;;
62903;SDS011;49000;50.698;13.322;2023-01-05T16:33:22;2.70;;;1.60;;
62903;SDS011;49000;50.698;13.322;2023-01-05T16:36:07;3.87;;;1.93;;
62903;SDS011;49000;50.698;13.322;2023-01-05T16:38:42;3.60;;;1.60;;
62903;SDS011;49000;50.698;13.322;2023-01-05T16:41:21;4.20;;;1.50;;
62903;SDS011;49000;50.698;13.322;2023-01-05T16:43:53;4.93;;;1.60;;